sensor_id;sensor_type;location;lat;lon;timestamp;P1;durP1;ratioP1;P2;durP2;ratioP2
28988;SDS011;16089;59.952;10.818;2023-06-04T00:00:27;8.70;;;2.80;;
28988;SDS011;16089;59.952;10.818;2023-06-04T00:02:54;12.57;;;2.45;;
28988;SDS011;16089;59.952;10.818;2023-06-04T00:05:21;9.10;;;2.38;;
28988;SDS011;16089;59.952;10.818;2023-06-04T00:07:50;9.90;;;2.25;;
28988;SDS011;16089;59.952;10.818;2023-06-04T00:10:16;9.32;;;2.10;;
28988;SDS011;16089;59.952;10.818;2023-06-04T00:12:43;8.55;;;2.35;;
28988;SDS011;16089;59.952;10.818;2023-06-04T00:15:09;8.10;;;2.20;;
28988;SDS011;16089;59.952;10.818;2023-06-04T00:17:36;7.38;;;2.10;;
28988;SDS011;16089;59.952;10.818;2023-06-04T00:20:04;8.10;;;2.30;;
28988;SDS011;16089;59.952;10.818;2023-06-04T00:22:31;14.70;;;4.75;;
28988;SDS011;16089;59.952;10.818;2023-06-04T00:24:57;6.95;;;2.28;;
28988;SDS011;16089;59.952;10.818;2023-06-04T00:27:23;6.70;;;2.00;;
28988;SDS011;16089;59.952;10.818;2023-06-04T00:29:50;9.82;;;2.58;;
28988;SDS011;16089;59.952;10.818;2023-06-04T00:32:16;6.32;;;2.08;;
28988;SDS011;16089;59.952;10.818;2023-06-04T00:34:43;7.45;;;2.40;;
28988;SDS011;16089;59.952;10.818;2023-06-04T00:37:10;6.90;;;2.08;;
28988;SDS011;16089;59.952;10.818;2023-06-04T00:39:37;5.30;;;2.17;;
28988;SDS011;16089;59.952;10.818;2023-06-04T00:42:03;7.72;;;2.00;;
28988;SDS011;16089;59.952;10.818;2023-06-04T00:44:29;12.52;;;2.40;;
28988;SDS011;16089;59.952;10.818;2023-06-04T00:46:57;7.00;;;2.42;;
28988;SDS011;16089;59.952;10.818;2023-06-04T00:49:23;4.75;;;1.65;;
28988;SDS011;16089;59.952;10.818;2023-06-04T00:51:50;4.00;;;1.42;;
28988;SDS011;16089;59.952;10.818;2023-06-04T00:54:18;5.40;;;1.60;;
28988;SDS011;16089;59.952;10.818;2023-06-04T00:56:45;4.97;;;1.25;;
28988;SDS011;16089;59.952;10.818;2023-06-04T00:59:11;3.90;;;1.60;;
28988;SDS011;16089;59.952;10.818;2023-06-04T01:01:39;2.83;;;1.20;;
28988;SDS011;16089;59.952;10.818;2023-06-04T01:04:12;4.10;;;1.23;;
28988;SDS011;16089;59.952;10.818;2023-06-04T01:06:42;5.38;;;1.48;;
28988;SDS011;16089;59.952;10.818;2023-06-04T01:09:09;4.88;;;2.35;;
28988;SDS011;16089;59.952;10.818;2023-06-04T01:11:38;4.53;;;2.25;;
28988;SDS011;16089;59.952;10.818;2023-06-04T01:14:05;3.75;;;1.60;;
28988;SDS011;16089;59.952;10.818;2023-06-04T01:16:38;6.15;;;1.30;;
28988;SDS011;16089;59.952;10.818;2023-06-04T01:19:09;3.13;;;1.30;;
28988;SDS011;16089;59.952;10.818;2023-06-04T01:21:46;2.70;;;1.10;;
28988;SDS011;16089;59.952;10.818;2023-06-04T01:24:14;3.78;;;1.15;;
28988;SDS011;16089;59.952;10.818;2023-06-04T01:26:42;2.72;;;1.13;;
28988;SDS011;16089;59.952;10.818;2023-06-04T01:29:08;4.05;;;1.48;;
28988;SDS011;16089;59.952;10.818;2023-06-04T01:31:35;2.78;;;1.25;;
28988;SDS011;16089;59.952;10.818;2023-06-04T01:34:02;3.42;;;1.50;;
28988;SDS011;16089;59.952;10.818;2023-06-04T01:36:28;3.38;;;1.30;;
28988;SDS011;16089;59.952;10.818;2023-06-04T01:38:55;3.42;;;1.42;;
28988;SDS011;16089;59.952;10.818;2023-06-04T01:41:21;3.47;;;1.08;;
28988;SDS011;16089;59.952;10.818;2023-06-04T01:43:49;2.85;;;1.00;;
28988;SDS011;16089;59.952;10.818;2023-06-04T01:46:15;8.48;;;1.30;;
28988;SDS011;16089;59.952;10.818;2023-06-04T01:48:42;2.75;;;1.33;;
28988;SDS011;16089;59.952;10.818;2023-06-04T01:51:08;3.20;;;1.20;;
28988;SDS011;16089;59.952;10.818;2023-06-04T01:53:34;2.83;;;1.15;;
28988;SDS011;16089;59.952;10.818;2023-06-04T01:56:01;3.03;;;1.10;;
28988;SDS011;16089;59.952;10.818;2023-06-04T01:58:28;3.97;;;1.30;;
28988;SDS011;16089;59.952;10.818;2023-06-04T02:00:58;2.80;;;1.15;;
28988;SDS011;16089;59.952;10.818;2023-06-04T02:03:28;3.67;;;1.20;;
28988;SDS011;16089;59.952;10.818;2023-06-04T02:05:57;3.45;;;1.13;;
28988;SDS011;16089;59.952;10.818;2023-06-04T02:08:23;3.63;;;1.20;;
28988;SDS011;16089;59.952;10.818;2023-06-04T02:10:50;3.17;;;1.08;;
28988;SDS011;16089;59.952;10.818;2023-06-04T02:13:16;1.80;;;0.90;;
28988;SDS011;16089;59.952;10.818;2023-06-04T02:15:43;2.47;;;1.17;;
28988;SDS011;16089;59.952;10.818;2023-06-04T02:18:14;3.95;;;1.38;;
28988;SDS011;16089;59.952;10.818;2023-06-04T02:20:46;3.78;;;1.15;;
28988;SDS011;16089;59.952;10.818;2023-06-04T02:23:13;3.35;;;1.30;;
28988;SDS011;16089;59.952;10.818;2023-06-04T02:25:39;2.22;;;1.02;;
28988;SDS011;16089;59.952;10.818;2023-06-04T02:28:06;3.75;;;1.08;;
28988;SDS011;16089;59.952;10.818;2023-06-04T02:30:32;4.28;;;1.42;;
28988;SDS011;16089;59.952;10.818;2023-06-04T02:32:58;4.82;;;1.20;;
28988;SDS011;16089;59.952;10.818;2023-06-04T02:35:27;2.17;;;1.00;;
28988;SDS011;16089;59.952;10.818;2023-06-04T02:37:53;3.08;;;1.10;;
28988;SDS011;16089;59.952;10.818;2023-06-04T02:40:21;4.30;;;1.35;;
28988;SDS011;16089;59.952;10.818;2023-06-04T02:42:47;3.95;;;1.10;;
28988;SDS011;16089;59.952;10.818;2023-06-04T02:45:14;2.08;;;1.13;;
28988;SDS011;16089;59.952;10.818;2023-06-04T02:47:40;2.45;;;1.23;;
28988;SDS011;16089;59.952;10.818;2023-06-04T02:50:07;2.55;;;1.27;;
28988;SDS011;16089;59.952;10.818;2023-06-04T02:52:35;3.88;;;1.15;;
28988;SDS011;16089;59.952;10.818;2023-06-04T02:55:02;2.58;;;0.98;;
28988;SDS011;16089;59.952;10.818;2023-06-04T02:57:29;2.65;;;1.13;;
28988;SDS011;16089;59.952;10.818;2023-06-04T02:59:55;3.85;;;1.23;;
28988;SDS011;16089;59.952;10.818;2023-06-04T03:02:21;2.72;;;1.20;;
28988;SDS011;16089;59.952;10.818;2023-06-04T03:04:48;2.88;;;1.05;;
28988;SDS011;16089;59.952;10.818;2023-06-04T03:07:16;2.35;;;1.10;;
28988;SDS011;16089;59.952;10.818;2023-06-04T03:09:47;5.35;;;1.27;;
28988;SDS011;16089;59.952;10.818;2023-06-04T03:12:13;4.30;;;1.30;;
28988;SDS011;16089;59.952;10.818;2023-06-04T03:14:39;2.08;;;1.00;;
28988;SDS011;16089;59.952;10.818;2023-06-04T03:17:06;2.78;;;1.10;;
28988;SDS011;16089;59.952;10.818;2023-06-04T03:19:35;3.38;;;1.02;;
28988;SDS011;16089;59.952;10.818;2023-06-04T03:22:02;3.53;;;1.17;;
28988;SDS011;16089;59.952;10.818;2023-06-04T03:24:30;2.28;;;1.00;;
28988;SDS011;16089;59.952;10.818;2023-06-04T03:26:58;3.05;;;1.17;;
28988;SDS011;16089;59.952;10.818;2023-06-04T03:29:24;2.25;;;1.00;;
28988;SDS011;16089;59.952;10.818;2023-06-04T03:31:51;5.00;;;1.02;;
28988;SDS011;16089;59.952;10.818;2023-06-04T03:34:17;1.80;;;0.90;;
28988;SDS011;16089;59.952;10.818;2023-06-04T03:36:43;3.75;;;1.10;;
28988;SDS011;16089;59.952;10.818;2023-06-04T03:39:10;1.15;;;0.50;;
28988;SDS011;16089;59.952;10.818;2023-06-04T03:41:36;2.03;;;0.70;;
28988;SDS011;16089;59.952;10.818;2023-06-04T03:44:04;1.98;;;0.90;;
28988;SDS011;16089;59.952;10.818;2023-06-04T03:46:30;2.95;;;1.00;;
28988;SDS011;16089;59.952;10.818;2023-06-04T03:48:58;1.85;;;0.70;;
28988;SDS011;16089;59.952;10.818;2023-06-04T03:51:25;5.57;;;0.75;;
28988;SDS011;16089;59.952;10.818;2023-06-04T03:53:51;2.83;;;0.98;;
28988;SDS011;16089;59.952;10.818;2023-06-04T03:56:18;3.97;;;1.05;;
28988;SDS011;16089;59.952;10.818;2023-06-04T03:58:44;7.28;;;1.60;;
28988;SDS011;16089;59.952;10.818;2023-06-04T04:01:12;2.42;;;0.73;;
28988;SDS011;16089;59.952;10.818;2023-06-04T04:03:39;1.65;;;0.80;;
28988;SDS011;16089;59.952;10.818;2023-06-04T04:06:05;2.45;;;1.10;;
28988;SDS011;16089;59.952;10.818;2023-06-04T04:08:32;2.03;;;0.80;;
28988;SDS011;16089;59.952;10.818;2023-06-04T04:10:59;1.77;;;0.80;;
28988;SDS011;16089;59.952;10.818;2023-06-04T04:13:26;2.08;;;0.70;;
28988;SDS011;16089;59.952;10.818;2023-06-04T04:15:52;3.47;;;0.90;;
28988;SDS011;16089;59.952;10.818;2023-06-04T04:18:20;1.15;;;0.65;;
28988;SDS011;16089;59.952;10.818;2023-06-04T04:20:46;1.95;;;0.90;;
28988;SDS011;16089;59.952;10.818;2023-06-04T04:23:13;2.90;;;0.90;;
28988;SDS011;16089;59.952;10.818;2023-06-04T04:25:39;3.38;;;0.98;;
28988;SDS011;16089;59.952;10.818;2023-06-04T04:28:07;1.80;;;0.95;;
28988;SDS011;16089;59.952;10.818;2023-06-04T04:30:33;1.52;;;0.63;;
28988;SDS011;16089;59.952;10.818;2023-06-04T04:33:00;2.75;;;0.90;;
28988;SDS011;16089;59.952;10.818;2023-06-04T04:35:28;3.13;;;1.05;;
28988;SDS011;16089;59.952;10.818;2023-06-04T04:37:57;1.65;;;0.80;;
28988;SDS011;16089;59.952;10.818;2023-06-04T04:40:24;2.08;;;0.98;;
28988;SDS011;16089;59.952;10.818;2023-06-04T04:42:50;1.77;;;0.75;;
28988;SDS011;16089;59.952;10.818;2023-06-04T04:45:17;5.13;;;1.00;;
28988;SDS011;16089;59.952;10.818;2023-06-04T04:47:43;3.45;;;1.00;;
28988;SDS011;16089;59.952;10.818;2023-06-04T04:50:10;1.95;;;0.73;;
28988;SDS011;16089;59.952;10.818;2023-06-04T04:52:38;2.72;;;0.90;;
28988;SDS011;16089;59.952;10.818;2023-06-04T04:55:05;2.17;;;0.90;;
28988;SDS011;16089;59.952;10.818;2023-06-04T04:57:31;3.35;;;1.13;;
28988;SDS011;16089;59.952;10.818;2023-06-04T04:59:57;3.00;;;0.88;;
28988;SDS011;16089;59.952;10.818;2023-06-04T05:02:24;1.98;;;0.95;;
28988;SDS011;16089;59.952;10.818;2023-06-04T05:04:50;1.90;;;1.00;;
28988;SDS011;16089;59.952;10.818;2023-06-04T05:07:17;2.30;;;1.00;;
28988;SDS011;16089;59.952;10.818;2023-06-04T05:09:46;2.58;;;1.02;;
28988;SDS011;16089;59.952;10.818;2023-06-04T05:12:12;3.30;;;1.10;;
28988;SDS011;16089;59.952;10.818;2023-06-04T05:14:38;1.80;;;0.70;;
28988;SDS011;16089;59.952;10.818;2023-06-04T05:17:06;2.92;;;0.90;;
28988;SDS011;16089;59.952;10.818;2023-06-04T05:19:36;13.73;;;1.20;;
28988;SDS011;16089;59.952;10.818;2023-06-04T05:22:03;2.20;;;0.68;;
28988;SDS011;16089;59.952;10.818;2023-06-04T05:24:30;2.55;;;0.80;;
28988;SDS011;16089;59.952;10.818;2023-06-04T05:26:59;2.70;;;0.70;;
28988;SDS011;16089;59.952;10.818;2023-06-04T05:29:25;2.78;;;0.85;;
28988;SDS011;16089;59.952;10.818;2023-06-04T05:31:51;2.00;;;0.70;;
28988;SDS011;16089;59.952;10.818;2023-06-04T05:34:18;1.73;;;0.70;;
28988;SDS011;16089;59.952;10.818;2023-06-04T05:36:44;1.33;;;0.65;;
28988;SDS011;16089;59.952;10.818;2023-06-04T05:39:12;1.70;;;0.70;;
28988;SDS011;16089;59.952;10.818;2023-06-04T05:41:39;2.13;;;0.73;;
28988;SDS011;16089;59.952;10.818;2023-06-04T05:44:07;2.25;;;0.85;;
28988;SDS011;16089;59.952;10.818;2023-06-04T05:46:33;1.35;;;0.60;;
28988;SDS011;16089;59.952;10.818;2023-06-04T05:48:59;1.17;;;0.70;;
28988;SDS011;16089;59.952;10.818;2023-06-04T05:51:26;0.90;;;0.50;;
28988;SDS011;16089;59.952;10.818;2023-06-04T05:53:52;1.70;;;0.60;;
28988;SDS011;16089;59.952;10.818;2023-06-04T05:56:19;4.45;;;1.85;;
28988;SDS011;16089;59.952;10.818;2023-06-04T05:58:50;3.00;;;1.10;;
28988;SDS011;16089;59.952;10.818;2023-06-04T06:01:18;1.50;;;0.70;;
28988;SDS011;16089;59.952;10.818;2023-06-04T06:03:45;1.65;;;0.70;;
28988;SDS011;16089;59.952;10.818;2023-06-04T06:06:11;1.40;;;0.55;;
28988;SDS011;16089;59.952;10.818;2023-06-04T06:08:37;3.00;;;0.57;;
28988;SDS011;16089;59.952;10.818;2023-06-04T06:11:04;2.30;;;0.63;;
28988;SDS011;16089;59.952;10.818;2023-06-04T06:13:30;1.73;;;0.70;;
28988;SDS011;16089;59.952;10.818;2023-06-04T06:15:57;3.03;;;0.88;;
28988;SDS011;16089;59.952;10.818;2023-06-04T06:18:24;1.83;;;0.70;;
28988;SDS011;16089;59.952;10.818;2023-06-04T06:20:51;2.67;;;0.93;;
28988;SDS011;16089;59.952;10.818;2023-06-04T06:23:17;1.20;;;0.60;;
28988;SDS011;16089;59.952;10.818;2023-06-04T06:25:44;1.08;;;0.50;;
28988;SDS011;16089;59.952;10.818;2023-06-04T06:28:11;1.90;;;0.70;;
28988;SDS011;16089;59.952;10.818;2023-06-04T06:30:37;1.63;;;0.70;;
28988;SDS011;16089;59.952;10.818;2023-06-04T06:33:04;2.42;;;0.65;;
28988;SDS011;16089;59.952;10.818;2023-06-04T06:35:31;1.50;;;0.50;;
28988;SDS011;16089;59.952;10.818;2023-06-04T06:37:58;2.13;;;0.70;;
28988;SDS011;16089;59.952;10.818;2023-06-04T06:40:25;1.08;;;0.43;;
28988;SDS011;16089;59.952;10.818;2023-06-04T06:42:51;1.30;;;0.63;;
28988;SDS011;16089;59.952;10.818;2023-06-04T06:45:18;2.85;;;0.70;;
28988;SDS011;16089;59.952;10.818;2023-06-04T06:47:44;1.10;;;0.50;;
28988;SDS011;16089;59.952;10.818;2023-06-04T06:50:11;1.40;;;0.60;;
28988;SDS011;16089;59.952;10.818;2023-06-04T06:52:38;1.55;;;0.50;;
28988;SDS011;16089;59.952;10.818;2023-06-04T06:55:05;1.38;;;0.57;;
28988;SDS011;16089;59.952;10.818;2023-06-04T06:57:32;1.50;;;0.60;;
28988;SDS011;16089;59.952;10.818;2023-06-04T06:59:58;3.20;;;0.77;;
28988;SDS011;16089;59.952;10.818;2023-06-04T07:02:25;3.60;;;0.60;;
28988;SDS011;16089;59.952;10.818;2023-06-04T07:04:51;1.15;;;0.57;;
28988;SDS011;16089;59.952;10.818;2023-06-04T07:07:17;1.33;;;0.65;;
28988;SDS011;16089;59.952;10.818;2023-06-04T07:09:45;1.25;;;0.60;;
28988;SDS011;16089;59.952;10.818;2023-06-04T07:12:11;2.42;;;0.70;;
28988;SDS011;16089;59.952;10.818;2023-06-04T07:14:38;0.95;;;0.45;;
28988;SDS011;16089;59.952;10.818;2023-06-04T07:17:04;1.73;;;0.50;;
28988;SDS011;16089;59.952;10.818;2023-06-04T07:19:31;1.95;;;0.65;;
28988;SDS011;16089;59.952;10.818;2023-06-04T07:21:57;1.55;;;0.60;;
28988;SDS011;16089;59.952;10.818;2023-06-04T07:24:23;1.15;;;0.50;;
28988;SDS011;16089;59.952;10.818;2023-06-04T07:26:51;2.35;;;0.68;;
28988;SDS011;16089;59.952;10.818;2023-06-04T07:29:18;1.88;;;0.60;;
28988;SDS011;16089;59.952;10.818;2023-06-04T07:31:45;1.40;;;0.50;;
28988;SDS011;16089;59.952;10.818;2023-06-04T07:34:11;2.35;;;0.77;;
28988;SDS011;16089;59.952;10.818;2023-06-04T07:36:37;1.73;;;0.70;;
28988;SDS011;16089;59.952;10.818;2023-06-04T07:39:04;1.75;;;0.60;;
28988;SDS011;16089;59.952;10.818;2023-06-04T07:41:30;0.93;;;0.55;;
28988;SDS011;16089;59.952;10.818;2023-06-04T07:43:58;3.00;;;0.70;;
28988;SDS011;16089;59.952;10.818;2023-06-04T07:46:24;2.75;;;0.60;;
28988;SDS011;16089;59.952;10.818;2023-06-04T07:48:51;1.52;;;0.50;;
28988;SDS011;16089;59.952;10.818;2023-06-04T07:51:17;1.33;;;0.60;;
28988;SDS011;16089;59.952;10.818;2023-06-04T07:53:44;1.50;;;0.52;;
28988;SDS011;16089;59.952;10.818;2023-06-04T07:56:10;0.93;;;0.50;;
28988;SDS011;16089;59.952;10.818;2023-06-04T07:58:37;1.52;;;0.50;;
28988;SDS011;16089;59.952;10.818;2023-06-04T08:01:04;2.47;;;0.70;;
28988;SDS011;16089;59.952;10.818;2023-06-04T08:03:31;0.88;;;0.45;;
28988;SDS011;16089;59.952;10.818;2023-06-04T08:05:57;4.25;;;0.70;;
28988;SDS011;16089;59.952;10.818;2023-06-04T08:08:24;2.70;;;0.60;;
28988;SDS011;16089;59.952;10.818;2023-06-04T08:10:50;1.38;;;0.70;;
28988;SDS011;16089;59.952;10.818;2023-06-04T08:13:16;2.28;;;0.73;;
28988;SDS011;16089;59.952;10.818;2023-06-04T08:15:43;1.80;;;0.60;;
28988;SDS011;16089;59.952;10.818;2023-06-04T08:18:11;1.60;;;0.60;;
28988;SDS011;16089;59.952;10.818;2023-06-04T08:20:37;1.55;;;0.60;;
28988;SDS011;16089;59.952;10.818;2023-06-04T08:23:03;1.88;;;0.60;;
28988;SDS011;16089;59.952;10.818;2023-06-04T08:25:30;1.55;;;0.60;;
28988;SDS011;16089;59.952;10.818;2023-06-04T08:27:56;1.05;;;0.43;;
28988;SDS011;16089;59.952;10.818;2023-06-04T08:30:23;2.05;;;0.60;;
28988;SDS011;16089;59.952;10.818;2023-06-04T08:32:50;8.98;;;2.25;;
28988;SDS011;16089;59.952;10.818;2023-06-04T08:35:18;4.20;;;1.23;;
28988;SDS011;16089;59.952;10.818;2023-06-04T08:37:44;6.53;;;2.05;;
28988;SDS011;16089;59.952;10.818;2023-06-04T08:40:11;4.35;;;1.65;;
28988;SDS011;16089;59.952;10.818;2023-06-04T08:42:38;3.70;;;1.17;;
28988;SDS011;16089;59.952;10.818;2023-06-04T08:45:06;2.28;;;0.80;;
28988;SDS011;16089;59.952;10.818;2023-06-04T08:47:35;1.73;;;0.60;;
28988;SDS011;16089;59.952;10.818;2023-06-04T08:50:03;2.72;;;1.10;;
28988;SDS011;16089;59.952;10.818;2023-06-04T08:52:33;1.75;;;0.77;;
28988;SDS011;16089;59.952;10.818;2023-06-04T08:54:59;0.93;;;0.50;;
28988;SDS011;16089;59.952;10.818;2023-06-04T08:57:25;1.88;;;0.73;;
28988;SDS011;16089;59.952;10.818;2023-06-04T08:59:52;3.55;;;0.60;;
28988;SDS011;16089;59.952;10.818;2023-06-04T09:02:18;3.25;;;1.00;;
28988;SDS011;16089;59.952;10.818;2023-06-04T09:04:45;1.45;;;0.60;;
28988;SDS011;16089;59.952;10.818;2023-06-04T09:07:12;1.77;;;0.70;;
28988;SDS011;16089;59.952;10.818;2023-06-04T09:09:40;1.17;;;0.50;;
28988;SDS011;16089;59.952;10.818;2023-06-04T09:12:09;1.92;;;0.60;;
28988;SDS011;16089;59.952;10.818;2023-06-04T09:14:36;1.42;;;0.70;;
28988;SDS011;16089;59.952;10.818;2023-06-04T09:17:02;2.03;;;0.70;;
28988;SDS011;16089;59.952;10.818;2023-06-04T09:19:29;2.78;;;0.93;;
28988;SDS011;16089;59.952;10.818;2023-06-04T09:21:55;2.30;;;0.70;;
28988;SDS011;16089;59.952;10.818;2023-06-04T09:24:22;1.25;;;0.65;;
28988;SDS011;16089;59.952;10.818;2023-06-04T09:26:50;1.25;;;0.50;;
28988;SDS011;16089;59.952;10.818;2023-06-04T09:29:17;1.60;;;0.60;;
28988;SDS011;16089;59.952;10.818;2023-06-04T09:31:44;1.25;;;0.60;;
28988;SDS011;16089;59.952;10.818;2023-06-04T09:34:12;1.20;;;0.70;;
28988;SDS011;16089;59.952;10.818;2023-06-04T09:36:38;0.70;;;0.40;;
28988;SDS011;16089;59.952;10.818;2023-06-04T09:39:14;2.33;;;0.90;;
28988;SDS011;16089;59.952;10.818;2023-06-04T09:41:40;3.83;;;0.85;;
28988;SDS011;16089;59.952;10.818;2023-06-04T09:44:08;3.58;;;0.60;;
28988;SDS011;16089;59.952;10.818;2023-06-04T09:46:35;2.03;;;0.88;;
28988;SDS011;16089;59.952;10.818;2023-06-04T09:49:02;1.35;;;0.50;;
28988;SDS011;16089;59.952;10.818;2023-06-04T09:51:29;1.60;;;0.70;;
28988;SDS011;16089;59.952;10.818;2023-06-04T09:53:56;1.88;;;0.80;;
28988;SDS011;16089;59.952;10.818;2023-06-04T09:56:23;24.45;;;6.03;;
28988;SDS011;16089;59.952;10.818;2023-06-04T09:58:49;5.55;;;1.65;;
28988;SDS011;16089;59.952;10.818;2023-06-04T10:01:17;2.70;;;1.30;;
28988;SDS011;16089;59.952;10.818;2023-06-04T10:03:46;4.88;;;2.05;;
28988;SDS011;16089;59.952;10.818;2023-06-04T10:06:13;2.72;;;1.13;;
28988;SDS011;16089;59.952;10.818;2023-06-04T10:08:41;2.25;;;0.90;;
28988;SDS011;16089;59.952;10.818;2023-06-04T10:11:08;2.05;;;0.82;;
28988;SDS011;16089;59.952;10.818;2023-06-04T10:13:35;2.28;;;1.02;;
28988;SDS011;16089;59.952;10.818;2023-06-04T10:16:03;1.80;;;0.73;;
28988;SDS011;16089;59.952;10.818;2023-06-04T10:18:31;2.47;;;0.77;;
28988;SDS011;16089;59.952;10.818;2023-06-04T10:20:58;2.00;;;0.60;;
28988;SDS011;16089;59.952;10.818;2023-06-04T10:23:25;1.77;;;0.60;;
28988;SDS011;16089;59.952;10.818;2023-06-04T10:25:51;2.45;;;0.68;;
28988;SDS011;16089;59.952;10.818;2023-06-04T10:28:19;2.38;;;0.95;;
28988;SDS011;16089;59.952;10.818;2023-06-04T10:30:45;2.78;;;1.00;;
28988;SDS011;16089;59.952;10.818;2023-06-04T10:33:12;1.92;;;0.80;;
28988;SDS011;16089;59.952;10.818;2023-06-04T10:35:40;1.77;;;0.70;;
28988;SDS011;16089;59.952;10.818;2023-06-04T10:38:08;1.70;;;0.70;;
28988;SDS011;16089;59.952;10.818;2023-06-04T10:40:35;2.22;;;0.90;;
28988;SDS011;16089;59.952;10.818;2023-06-04T10:43:04;1.38;;;0.80;;
28988;SDS011;16089;59.952;10.818;2023-06-04T10:45:31;2.30;;;0.90;;
28988;SDS011;16089;59.952;10.818;2023-06-04T10:47:59;1.73;;;0.80;;
28988;SDS011;16089;59.952;10.818;2023-06-04T10:50:26;1.40;;;0.75;;
28988;SDS011;16089;59.952;10.818;2023-06-04T10:52:54;1.60;;;0.70;;
28988;SDS011;16089;59.952;10.818;2023-06-04T10:55:22;0.90;;;0.60;;
28988;SDS011;16089;59.952;10.818;2023-06-04T10:57:52;2.35;;;0.80;;
28988;SDS011;16089;59.952;10.818;2023-06-04T11:00:18;3.17;;;1.17;;
28988;SDS011;16089;59.952;10.818;2023-06-04T11:02:51;3.65;;;1.00;;
28988;SDS011;16089;59.952;10.818;2023-06-04T11:05:18;4.35;;;0.88;;
28988;SDS011;16089;59.952;10.818;2023-06-04T11:07:45;2.67;;;0.77;;
28988;SDS011;16089;59.952;10.818;2023-06-04T11:10:13;2.25;;;0.60;;
28988;SDS011;16089;59.952;10.818;2023-06-04T11:12:43;2.67;;;0.63;;
28988;SDS011;16089;59.952;10.818;2023-06-04T11:15:10;2.15;;;0.60;;
28988;SDS011;16089;59.952;10.818;2023-06-04T11:17:36;1.73;;;0.70;;
28988;SDS011;16089;59.952;10.818;2023-06-04T11:20:03;2.75;;;0.70;;
28988;SDS011;16089;59.952;10.818;2023-06-04T11:22:31;2.95;;;0.70;;
28988;SDS011;16089;59.952;10.818;2023-06-04T11:24:58;1.30;;;0.57;;
28988;SDS011;16089;59.952;10.818;2023-06-04T11:27:26;3.63;;;0.50;;
28988;SDS011;16089;59.952;10.818;2023-06-04T11:29:52;0.98;;;0.57;;
28988;SDS011;16089;59.952;10.818;2023-06-04T11:32:22;3.22;;;0.57;;
28988;SDS011;16089;59.952;10.818;2023-06-04T11:34:48;2.05;;;0.68;;
28988;SDS011;16089;59.952;10.818;2023-06-04T11:37:15;1.38;;;0.60;;
28988;SDS011;16089;59.952;10.818;2023-06-04T11:39:41;1.35;;;0.60;;
28988;SDS011;16089;59.952;10.818;2023-06-04T11:42:09;4.13;;;0.50;;
28988;SDS011;16089;59.952;10.818;2023-06-04T11:44:37;2.63;;;0.52;;
28988;SDS011;16089;59.952;10.818;2023-06-04T11:47:07;1.40;;;0.60;;
28988;SDS011;16089;59.952;10.818;2023-06-04T11:49:34;9.40;;;1.02;;
28988;SDS011;16089;59.952;10.818;2023-06-04T11:52:01;1.95;;;0.70;;
28988;SDS011;16089;59.952;10.818;2023-06-04T11:54:27;1.90;;;0.88;;
28988;SDS011;16089;59.952;10.818;2023-06-04T11:56:54;1.40;;;0.65;;
28988;SDS011;16089;59.952;10.818;2023-06-04T11:59:20;1.95;;;0.60;;
28988;SDS011;16089;59.952;10.818;2023-06-04T12:01:48;1.00;;;0.50;;
28988;SDS011;16089;59.952;10.818;2023-06-04T12:04:15;2.03;;;0.80;;
28988;SDS011;16089;59.952;10.818;2023-06-04T12:06:50;2.38;;;0.68;;
28988;SDS011;16089;59.952;10.818;2023-06-04T12:09:19;2.58;;;0.82;;
28988;SDS011;16089;59.952;10.818;2023-06-04T12:11:46;1.85;;;0.60;;
28988;SDS011;16089;59.952;10.818;2023-06-04T12:14:15;2.30;;;0.50;;
28988;SDS011;16089;59.952;10.818;2023-06-04T12:16:41;1.42;;;0.70;;
28988;SDS011;16089;59.952;10.818;2023-06-04T12:19:10;3.15;;;1.10;;
28988;SDS011;16089;59.952;10.818;2023-06-04T12:21:37;1.52;;;0.65;;
28988;SDS011;16089;59.952;10.818;2023-06-04T12:24:07;2.47;;;0.60;;
28988;SDS011;16089;59.952;10.818;2023-06-04T12:26:33;2.15;;;0.55;;
28988;SDS011;16089;59.952;10.818;2023-06-04T12:29:06;1.70;;;0.80;;
28988;SDS011;16089;59.952;10.818;2023-06-04T12:31:33;1.70;;;0.65;;
28988;SDS011;16089;59.952;10.818;2023-06-04T12:34:00;2.17;;;0.80;;
28988;SDS011;16089;59.952;10.818;2023-06-04T12:36:28;4.25;;;1.00;;
28988;SDS011;16089;59.952;10.818;2023-06-04T12:38:57;3.50;;;0.80;;
28988;SDS011;16089;59.952;10.818;2023-06-04T12:41:23;2.75;;;0.70;;
28988;SDS011;16089;59.952;10.818;2023-06-04T12:43:50;4.63;;;2.60;;
28988;SDS011;16089;59.952;10.818;2023-06-04T12:46:16;2.78;;;0.90;;
28988;SDS011;16089;59.952;10.818;2023-06-04T12:48:43;1.95;;;0.70;;
28988;SDS011;16089;59.952;10.818;2023-06-04T12:51:09;3.67;;;0.70;;
28988;SDS011;16089;59.952;10.818;2023-06-04T12:53:39;2.47;;;0.80;;
28988;SDS011;16089;59.952;10.818;2023-06-04T12:56:05;3.15;;;0.90;;
28988;SDS011;16089;59.952;10.818;2023-06-04T12:58:32;2.40;;;0.90;;
28988;SDS011;16089;59.952;10.818;2023-06-04T13:00:58;2.53;;;0.60;;
28988;SDS011;16089;59.952;10.818;2023-06-04T13:03:25;3.25;;;0.80;;
28988;SDS011;16089;59.952;10.818;2023-06-04T13:05:51;1.60;;;0.80;;
28988;SDS011;16089;59.952;10.818;2023-06-04T13:08:18;2.20;;;0.85;;
28988;SDS011;16089;59.952;10.818;2023-06-04T13:10:46;1.10;;;0.50;;
28988;SDS011;16089;59.952;10.818;2023-06-04T13:13:13;2.03;;;0.88;;
28988;SDS011;16089;59.952;10.818;2023-06-04T13:15:40;1.80;;;0.90;;
28988;SDS011;16089;59.952;10.818;2023-06-04T13:18:07;1.50;;;0.70;;
28988;SDS011;16089;59.952;10.818;2023-06-04T13:20:33;1.80;;;0.75;;
28988;SDS011;16089;59.952;10.818;2023-06-04T13:23:00;3.95;;;0.82;;
28988;SDS011;16089;59.952;10.818;2023-06-04T13:25:26;3.20;;;0.88;;
28988;SDS011;16089;59.952;10.818;2023-06-04T13:27:55;2.45;;;0.80;;
28988;SDS011;16089;59.952;10.818;2023-06-04T13:30:21;2.85;;;1.02;;
28988;SDS011;16089;59.952;10.818;2023-06-04T13:32:48;3.40;;;0.90;;
28988;SDS011;16089;59.952;10.818;2023-06-04T13:35:14;3.08;;;0.80;;
28988;SDS011;16089;59.952;10.818;2023-06-04T13:37:40;2.03;;;0.75;;
28988;SDS011;16089;59.952;10.818;2023-06-04T13:40:07;1.77;;;0.75;;
28988;SDS011;16089;59.952;10.818;2023-06-04T13:42:34;3.67;;;1.00;;
28988;SDS011;16089;59.952;10.818;2023-06-04T13:45:01;3.90;;;0.80;;
28988;SDS011;16089;59.952;10.818;2023-06-04T13:47:28;1.70;;;0.60;;
28988;SDS011;16089;59.952;10.818;2023-06-04T13:49:55;2.38;;;0.77;;
28988;SDS011;16089;59.952;10.818;2023-06-04T13:52:21;3.45;;;0.90;;
28988;SDS011;16089;59.952;10.818;2023-06-04T13:54:48;3.13;;;0.80;;
28988;SDS011;16089;59.952;10.818;2023-06-04T13:57:14;1.35;;;0.63;;
28988;SDS011;16089;59.952;10.818;2023-06-04T13:59:41;3.50;;;0.75;;
28988;SDS011;16089;59.952;10.818;2023-06-04T14:02:08;1.85;;;0.82;;
28988;SDS011;16089;59.952;10.818;2023-06-04T14:04:35;2.75;;;0.80;;
28988;SDS011;16089;59.952;10.818;2023-06-04T14:07:01;1.83;;;0.88;;
28988;SDS011;16089;59.952;10.818;2023-06-04T14:09:27;3.05;;;0.75;;
28988;SDS011;16089;59.952;10.818;2023-06-04T14:11:53;2.85;;;0.80;;
28988;SDS011;16089;59.952;10.818;2023-06-04T14:14:20;2.28;;;0.95;;
28988;SDS011;16089;59.952;10.818;2023-06-04T14:16:47;2.38;;;0.90;;
28988;SDS011;16089;59.952;10.818;2023-06-04T14:19:15;2.13;;;0.90;;
28988;SDS011;16089;59.952;10.818;2023-06-04T14:21:41;2.88;;;1.10;;
28988;SDS011;16089;59.952;10.818;2023-06-04T14:24:08;4.50;;;1.00;;
28988;SDS011;16089;59.952;10.818;2023-06-04T14:26:35;3.88;;;1.00;;
28988;SDS011;16089;59.952;10.818;2023-06-04T14:29:02;3.30;;;0.90;;
28988;SDS011;16089;59.952;10.818;2023-06-04T14:31:28;1.40;;;0.80;;